Terminal Aerodrome Forecast
Issued by NWS Wilmington, OH

Current Version | Previous Version | Graphics & Text | Print | Product List | Glossary On
Versions: 1 2 3 4 5 6 7 8 9 10 11 12 13 14 15 16 17 18 19 20 21 22 23 24 25
000
FTUS41 KILN 151133
TAFCVG
TAF
KCVG 151133Z 1512/1618 14010KT P6SM OVC250
     FM151500 18010KT P6SM OVC080
     FM151800 21012G20KT 3SM -SHRA OVC030
     FM152100 21012G20KT 5SM -SHRA BR OVC006
     FM160000 23008KT P6SM OVC006
     FM160300 27008KT P6SM OVC012
     FM160900 29011KT P6SM SCT012=

USA.gov is the U.S. government's official web portal to all federal, state and local government web resources and services.